Terminal Aerodrome Forecast
Issued by NWS Louisville, KY

Home | Current Version | Previous Version | Text Only | Print | Product List | Glossary On
Versions: 1 2 3 4 5 6 7 8 9 10 11 12 13 14 15 16 17 18 19
000
FTUS43 KLMK 312300
TAFBWG
TAF
KBWG 312329Z 0100/0124 02004KT P6SM VCSH SCT025 BKN090
     FM010500 03003KT 5SM -SHRA BR BKN012 OVC040
     FM010700 03003KT 3SM -SHRA BR BKN007
     FM011500 04005KT P6SM BKN015
     FM012100 02005KT P6SM SCT025 BKN120=

USA.gov is the U.S. government's official web portal to all federal, state and local government web resources and services.